Terminal Aerodrome Forecast
Issued by NWS Grand Forks, ND

Home | Current Version | Previous Version | Text Only | Print | Product List | Glossary Off
Versions: 1 2 3 4 5 6 7 8 9 10 11 12 13 14 15 16 17 18

000
FTUS43 KFGF 282300
TAFGFK
TAF
KGFK 282328Z 2900/2924 32018G28KT P6SM OVC029
     FM290200 32014KT P6SM OVC030
     FM290600 30007KT P6SM OVC030
     FM291800 18007KT P6SM BKN040=

USA.gov is the U.S. government's official web portal to all federal, state and local government web resources and services.